sensor_id;sensor_type;location;lat;lon;timestamp;temperature;humidity
23579;DHT22;11967;50.852;4.400;2022-08-19T00:01:23;27.60;99.90
23579;DHT22;11967;50.852;4.400;2022-08-19T00:03:50;27.50;99.90
23579;DHT22;11967;50.852;4.400;2022-08-19T00:06:16;27.60;99.90
23579;DHT22;11967;50.852;4.400;2022-08-19T00:08:43;27.60;99.90
23579;DHT22;11967;50.852;4.400;2022-08-19T00:11:09;27.60;99.90
23579;DHT22;11967;50.852;4.400;2022-08-19T00:13:35;27.60;99.90
23579;DHT22;11967;50.852;4.400;2022-08-19T00:16:01;27.60;99.90
23579;DHT22;11967;50.852;4.400;2022-08-19T00:18:27;27.40;99.90
23579;DHT22;11967;50.852;4.400;2022-08-19T00:20:52;27.30;99.90
23579;DHT22;11967;50.852;4.400;2022-08-19T00:23:18;27.20;99.90
23579;DHT22;11967;50.852;4.400;2022-08-19T00:25:45;27.10;99.90
23579;DHT22;11967;50.852;4.400;2022-08-19T00:28:11;27.10;99.90
23579;DHT22;11967;50.852;4.400;2022-08-19T00:30:37;27.10;99.90
23579;DHT22;11967;50.852;4.400;2022-08-19T00:33:02;27.00;99.90
23579;DHT22;11967;50.852;4.400;2022-08-19T00:35:28;27.10;99.90
23579;DHT22;11967;50.852;4.400;2022-08-19T00:37:54;27.00;99.90
23579;DHT22;11967;50.852;4.400;2022-08-19T00:40:21;27.10;99.90
23579;DHT22;11967;50.852;4.400;2022-08-19T00:42:47;27.00;99.90
23579;DHT22;11967;50.852;4.400;2022-08-19T00:45:24;26.90;99.90
23579;DHT22;11967;50.852;4.400;2022-08-19T00:47:50;26.80;99.90
23579;DHT22;11967;50.852;4.400;2022-08-19T00:50:20;26.70;99.90
23579;DHT22;11967;50.852;4.400;2022-08-19T00:52:49;26.60;99.90
23579;DHT22;11967;50.852;4.400;2022-08-19T00:55:18;26.40;99.90
23579;DHT22;11967;50.852;4.400;2022-08-19T00:57:49;26.40;99.90
23579;DHT22;11967;50.852;4.400;2022-08-19T01:00:19;26.40;99.90
23579;DHT22;11967;50.852;4.400;2022-08-19T01:02:45;26.40;99.90
23579;DHT22;11967;50.852;4.400;2022-08-19T01:05:16;26.40;99.90
23579;DHT22;11967;50.852;4.400;2022-08-19T01:07:43;26.40;99.90
23579;DHT22;11967;50.852;4.400;2022-08-19T01:10:14;26.40;99.90
23579;DHT22;11967;50.852;4.400;2022-08-19T01:12:40;26.40;99.90
23579;DHT22;11967;50.852;4.400;2022-08-19T01:15:08;26.40;99.90
23579;DHT22;11967;50.852;4.400;2022-08-19T01:17:36;26.40;99.90
23579;DHT22;11967;50.852;4.400;2022-08-19T01:20:05;26.40;99.90
23579;DHT22;11967;50.852;4.400;2022-08-19T01:22:44;26.50;99.90
23579;DHT22;11967;50.852;4.400;2022-08-19T01:25:10;26.40;99.90
23579;DHT22;11967;50.852;4.400;2022-08-19T01:27:44;26.30;99.90
23579;DHT22;11967;50.852;4.400;2022-08-19T01:30:13;26.10;99.90
23579;DHT22;11967;50.852;4.400;2022-08-19T01:32:39;26.10;99.90
23579;DHT22;11967;50.852;4.400;2022-08-19T01:35:05;26.10;99.90
23579;DHT22;11967;50.852;4.400;2022-08-19T01:37:45;26.10;99.90
23579;DHT22;11967;50.852;4.400;2022-08-19T01:40:12;26.10;99.90
23579;DHT22;11967;50.852;4.400;2022-08-19T01:42:38;26.10;99.90
23579;DHT22;11967;50.852;4.400;2022-08-19T01:45:05;26.10;99.90
23579;DHT22;11967;50.852;4.400;2022-08-19T01:47:35;26.00;99.90
23579;DHT22;11967;50.852;4.400;2022-08-19T01:50:01;26.00;99.90
23579;DHT22;11967;50.852;4.400;2022-08-19T01:52:27;26.10;99.90
23579;DHT22;11967;50.852;4.400;2022-08-19T01:54:54;26.10;99.90
23579;DHT22;11967;50.852;4.400;2022-08-19T01:57:19;26.00;99.90
23579;DHT22;11967;50.852;4.400;2022-08-19T01:59:45;26.00;99.90
23579;DHT22;11967;50.852;4.400;2022-08-19T02:02:11;25.90;99.90
23579;DHT22;11967;50.852;4.400;2022-08-19T02:04:38;25.80;99.90
23579;DHT22;11967;50.852;4.400;2022-08-19T02:07:05;25.50;99.90
23579;DHT22;11967;50.852;4.400;2022-08-19T02:09:31;25.40;99.90
23579;DHT22;11967;50.852;4.400;2022-08-19T02:11:57;25.40;99.90
23579;DHT22;11967;50.852;4.400;2022-08-19T02:14:23;25.30;99.90
23579;DHT22;11967;50.852;4.400;2022-08-19T02:16:49;25.10;99.90
23579;DHT22;11967;50.852;4.400;2022-08-19T02:19:15;25.20;99.90
23579;DHT22;11967;50.852;4.400;2022-08-19T02:21:41;25.20;99.90
23579;DHT22;11967;50.852;4.400;2022-08-19T02:24:06;25.20;99.90
23579;DHT22;11967;50.852;4.400;2022-08-19T02:26:33;25.30;99.90
23579;DHT22;11967;50.852;4.400;2022-08-19T02:28:58;25.30;99.90
23579;DHT22;11967;50.852;4.400;2022-08-19T02:31:25;25.30;99.90
23579;DHT22;11967;50.852;4.400;2022-08-19T02:33:53;25.30;99.90
23579;DHT22;11967;50.852;4.400;2022-08-19T02:36:20;25.20;99.90
23579;DHT22;11967;50.852;4.400;2022-08-19T02:38:46;25.20;99.90
23579;DHT22;11967;50.852;4.400;2022-08-19T02:41:16;25.00;99.90
23579;DHT22;11967;50.852;4.400;2022-08-19T02:43:42;24.80;99.90
23579;DHT22;11967;50.852;4.400;2022-08-19T02:46:17;24.70;99.90
23579;DHT22;11967;50.852;4.400;2022-08-19T02:48:43;24.70;99.90
23579;DHT22;11967;50.852;4.400;2022-08-19T02:51:09;24.50;99.90
23579;DHT22;11967;50.852;4.400;2022-08-19T02:53:40;24.30;99.90
23579;DHT22;11967;50.852;4.400;2022-08-19T02:56:07;24.30;99.90
23579;DHT22;11967;50.852;4.400;2022-08-19T02:58:33;24.40;99.90
23579;DHT22;11967;50.852;4.400;2022-08-19T03:00:58;24.60;99.90
23579;DHT22;11967;50.852;4.400;2022-08-19T03:03:24;24.40;99.90
23579;DHT22;11967;50.852;4.400;2022-08-19T03:05:50;24.30;99.90
23579;DHT22;11967;50.852;4.400;2022-08-19T03:08:16;24.20;99.90
23579;DHT22;11967;50.852;4.400;2022-08-19T03:10:46;24.10;99.90
23579;DHT22;11967;50.852;4.400;2022-08-19T03:13:14;24.00;99.90
23579;DHT22;11967;50.852;4.400;2022-08-19T03:15:46;24.10;99.90
23579;DHT22;11967;50.852;4.400;2022-08-19T03:18:13;24.10;99.90
23579;DHT22;11967;50.852;4.400;2022-08-19T03:20:47;24.00;99.90
23579;DHT22;11967;50.852;4.400;2022-08-19T03:23:14;23.80;99.90
23579;DHT22;11967;50.852;4.400;2022-08-19T03:25:42;23.80;99.90
23579;DHT22;11967;50.852;4.400;2022-08-19T03:28:09;23.90;99.90
23579;DHT22;11967;50.852;4.400;2022-08-19T03:30:35;23.90;99.90
23579;DHT22;11967;50.852;4.400;2022-08-19T03:33:01;23.90;99.90
23579;DHT22;11967;50.852;4.400;2022-08-19T03:35:27;23.80;99.90
23579;DHT22;11967;50.852;4.400;2022-08-19T03:37:53;23.80;99.90
23579;DHT22;11967;50.852;4.400;2022-08-19T03:40:19;24.00;99.90
23579;DHT22;11967;50.852;4.400;2022-08-19T03:42:44;24.00;99.90
23579;DHT22;11967;50.852;4.400;2022-08-19T03:45:11;24.10;99.90
23579;DHT22;11967;50.852;4.400;2022-08-19T03:47:37;24.10;99.90
23579;DHT22;11967;50.852;4.400;2022-08-19T03:50:03;24.10;99.90
23579;DHT22;11967;50.852;4.400;2022-08-19T03:52:29;23.90;99.90
23579;DHT22;11967;50.852;4.400;2022-08-19T03:54:55;23.80;99.90
23579;DHT22;11967;50.852;4.400;2022-08-19T03:57:21;23.90;99.90
23579;DHT22;11967;50.852;4.400;2022-08-19T03:59:46;23.80;99.90
23579;DHT22;11967;50.852;4.400;2022-08-19T04:02:12;23.70;99.90
23579;DHT22;11967;50.852;4.400;2022-08-19T04:04:40;23.70;99.90
23579;DHT22;11967;50.852;4.400;2022-08-19T04:07:08;23.70;99.90
23579;DHT22;11967;50.852;4.400;2022-08-19T04:09:35;23.70;99.90
23579;DHT22;11967;50.852;4.400;2022-08-19T04:12:02;23.60;99.90
23579;DHT22;11967;50.852;4.400;2022-08-19T04:14:30;23.70;99.90
23579;DHT22;11967;50.852;4.400;2022-08-19T04:16:58;23.70;99.90
23579;DHT22;11967;50.852;4.400;2022-08-19T04:19:25;23.60;99.90
23579;DHT22;11967;50.852;4.400;2022-08-19T04:21:52;23.60;99.90
23579;DHT22;11967;50.852;4.400;2022-08-19T04:24:19;23.50;99.90
23579;DHT22;11967;50.852;4.400;2022-08-19T04:26:45;23.40;99.90
23579;DHT22;11967;50.852;4.400;2022-08-19T04:29:14;23.20;99.90
23579;DHT22;11967;50.852;4.400;2022-08-19T04:31:41;23.10;99.90
23579;DHT22;11967;50.852;4.400;2022-08-19T04:34:10;23.20;99.90
23579;DHT22;11967;50.852;4.400;2022-08-19T04:36:38;23.00;99.90
23579;DHT22;11967;50.852;4.400;2022-08-19T04:39:09;22.80;99.90
23579;DHT22;11967;50.852;4.400;2022-08-19T04:41:35;22.90;99.90
23579;DHT22;11967;50.852;4.400;2022-08-19T04:44:19;22.90;99.90
23579;DHT22;11967;50.852;4.400;2022-08-19T04:46:49;22.90;99.90
23579;DHT22;11967;50.852;4.400;2022-08-19T04:49:16;23.00;99.90
23579;DHT22;11967;50.852;4.400;2022-08-19T04:51:44;23.20;99.90
23579;DHT22;11967;50.852;4.400;2022-08-19T04:54:14;23.30;99.90
23579;DHT22;11967;50.852;4.400;2022-08-19T04:56:40;23.40;99.90
23579;DHT22;11967;50.852;4.400;2022-08-19T04:59:06;23.60;99.90
23579;DHT22;11967;50.852;4.400;2022-08-19T05:01:34;23.80;99.90
23579;DHT22;11967;50.852;4.400;2022-08-19T05:04:01;23.70;99.90
23579;DHT22;11967;50.852;4.400;2022-08-19T05:06:30;23.70;99.90
23579;DHT22;11967;50.852;4.400;2022-08-19T05:08:58;23.60;99.90
23579;DHT22;11967;50.852;4.400;2022-08-19T05:11:28;23.70;99.90
23579;DHT22;11967;50.852;4.400;2022-08-19T05:13:54;23.80;99.90
23579;DHT22;11967;50.852;4.400;2022-08-19T05:16:21;23.80;99.90
23579;DHT22;11967;50.852;4.400;2022-08-19T05:18:48;23.80;99.90
23579;DHT22;11967;50.852;4.400;2022-08-19T05:21:33;23.70;99.90
23579;DHT22;11967;50.852;4.400;2022-08-19T05:24:18;23.70;99.90
23579;DHT22;11967;50.852;4.400;2022-08-19T05:26:46;23.70;99.90
23579;DHT22;11967;50.852;4.400;2022-08-19T05:29:14;23.90;99.90
23579;DHT22;11967;50.852;4.400;2022-08-19T05:31:40;23.80;99.90
23579;DHT22;11967;50.852;4.400;2022-08-19T05:34:07;23.80;99.90
23579;DHT22;11967;50.852;4.400;2022-08-19T05:36:39;24.00;99.90
23579;DHT22;11967;50.852;4.400;2022-08-19T05:39:06;24.10;99.90
23579;DHT22;11967;50.852;4.400;2022-08-19T05:41:32;24.00;99.90
23579;DHT22;11967;50.852;4.400;2022-08-19T05:44:01;24.00;99.90
23579;DHT22;11967;50.852;4.400;2022-08-19T05:46:28;24.00;99.90
23579;DHT22;11967;50.852;4.400;2022-08-19T05:48:54;24.10;99.90
23579;DHT22;11967;50.852;4.400;2022-08-19T05:51:22;24.30;99.90
23579;DHT22;11967;50.852;4.400;2022-08-19T05:53:48;24.20;99.90
23579;DHT22;11967;50.852;4.400;2022-08-19T05:56:16;24.20;99.90
23579;DHT22;11967;50.852;4.400;2022-08-19T05:58:42;24.20;99.90
23579;DHT22;11967;50.852;4.400;2022-08-19T06:01:15;24.10;99.90
23579;DHT22;11967;50.852;4.400;2022-08-19T06:03:41;24.30;99.90
23579;DHT22;11967;50.852;4.400;2022-08-19T06:06:09;24.60;99.90
23579;DHT22;11967;50.852;4.400;2022-08-19T06:08:36;24.60;99.90
23579;DHT22;11967;50.852;4.400;2022-08-19T06:11:24;24.50;99.90
23579;DHT22;11967;50.852;4.400;2022-08-19T06:13:53;24.40;99.90
23579;DHT22;11967;50.852;4.400;2022-08-19T06:16:20;24.30;99.90
23579;DHT22;11967;50.852;4.400;2022-08-19T06:18:51;24.30;99.90
23579;DHT22;11967;50.852;4.400;2022-08-19T06:21:21;24.40;99.90
23579;DHT22;11967;50.852;4.400;2022-08-19T06:23:48;24.30;99.90
23579;DHT22;11967;50.852;4.400;2022-08-19T06:26:27;24.30;99.90
23579;DHT22;11967;50.852;4.400;2022-08-19T06:29:09;24.20;99.90
23579;DHT22;11967;50.852;4.400;2022-08-19T06:31:35;24.20;99.90
23579;DHT22;11967;50.852;4.400;2022-08-19T06:34:04;24.20;99.90
23579;DHT22;11967;50.852;4.400;2022-08-19T06:36:35;24.30;99.90
23579;DHT22;11967;50.852;4.400;2022-08-19T06:39:12;24.50;99.90
23579;DHT22;11967;50.852;4.400;2022-08-19T06:41:44;24.60;99.90
23579;DHT22;11967;50.852;4.400;2022-08-19T06:44:11;24.30;99.90
23579;DHT22;11967;50.852;4.400;2022-08-19T06:46:38;24.10;99.90
23579;DHT22;11967;50.852;4.400;2022-08-19T06:49:04;23.90;99.90
23579;DHT22;11967;50.852;4.400;2022-08-19T06:51:30;23.80;99.90
23579;DHT22;11967;50.852;4.400;2022-08-19T06:53:58;23.70;99.90
23579;DHT22;11967;50.852;4.400;2022-08-19T06:56:30;23.60;99.90
23579;DHT22;11967;50.852;4.400;2022-08-19T06:59:03;23.40;99.90
23579;DHT22;11967;50.852;4.400;2022-08-19T07:01:29;23.50;99.90
23579;DHT22;11967;50.852;4.400;2022-08-19T07:03:54;23.30;99.90
23579;DHT22;11967;50.852;4.400;2022-08-19T07:06:21;23.30;99.90
23579;DHT22;11967;50.852;4.400;2022-08-19T07:08:47;23.10;99.90
23579;DHT22;11967;50.852;4.400;2022-08-19T07:11:16;23.10;99.90
23579;DHT22;11967;50.852;4.400;2022-08-19T07:13:46;23.10;99.90
23579;DHT22;11967;50.852;4.400;2022-08-19T07:16:16;23.10;99.90
23579;DHT22;11967;50.852;4.400;2022-08-19T07:18:42;23.10;99.90
23579;DHT22;11967;50.852;4.400;2022-08-19T07:21:09;23.10;99.90
23579;DHT22;11967;50.852;4.400;2022-08-19T07:23:35;23.10;99.90
23579;DHT22;11967;50.852;4.400;2022-08-19T07:26:10;23.20;99.90
23579;DHT22;11967;50.852;4.400;2022-08-19T07:28:36;23.40;99.90
23579;DHT22;11967;50.852;4.400;2022-08-19T07:31:06;23.50;99.90
23579;DHT22;11967;50.852;4.400;2022-08-19T07:33:32;23.60;99.90
23579;DHT22;11967;50.852;4.400;2022-08-19T07:35:58;23.60;99.90
23579;DHT22;11967;50.852;4.400;2022-08-19T07:38:24;23.70;99.90
23579;DHT22;11967;50.852;4.400;2022-08-19T07:40:50;23.80;99.90
23579;DHT22;11967;50.852;4.400;2022-08-19T07:43:17;23.80;99.90
23579;DHT22;11967;50.852;4.400;2022-08-19T07:45:46;23.90;99.90
23579;DHT22;11967;50.852;4.400;2022-08-19T07:48:12;24.00;99.90
23579;DHT22;11967;50.852;4.400;2022-08-19T07:50:38;24.10;99.90
23579;DHT22;11967;50.852;4.400;2022-08-19T07:53:04;24.30;99.90
23579;DHT22;11967;50.852;4.400;2022-08-19T07:55:29;24.10;99.90
23579;DHT22;11967;50.852;4.400;2022-08-19T07:57:56;24.10;99.90
23579;DHT22;11967;50.852;4.400;2022-08-19T08:00:22;24.00;99.90
23579;DHT22;11967;50.852;4.400;2022-08-19T08:02:47;24.00;99.90
23579;DHT22;11967;50.852;4.400;2022-08-19T08:05:13;24.20;99.90
23579;DHT22;11967;50.852;4.400;2022-08-19T08:07:57;24.10;99.90
23579;DHT22;11967;50.852;4.400;2022-08-19T08:10:41;24.10;99.90
23579;DHT22;11967;50.852;4.400;2022-08-19T08:13:07;24.20;99.90
23579;DHT22;11967;50.852;4.400;2022-08-19T08:15:33;24.30;99.90
23579;DHT22;11967;50.852;4.400;2022-08-19T08:17:59;24.40;99.90
23579;DHT22;11967;50.852;4.400;2022-08-19T08:20:24;24.60;99.90
23579;DHT22;11967;50.852;4.400;2022-08-19T08:22:50;24.70;99.90
23579;DHT22;11967;50.852;4.400;2022-08-19T08:25:35;24.70;99.90
23579;DHT22;11967;50.852;4.400;2022-08-19T08:28:03;24.60;99.90
23579;DHT22;11967;50.852;4.400;2022-08-19T08:30:30;24.50;99.90
23579;DHT22;11967;50.852;4.400;2022-08-19T08:32:57;24.60;99.90
23579;DHT22;11967;50.852;4.400;2022-08-19T08:35:24;24.70;99.90
23579;DHT22;11967;50.852;4.400;2022-08-19T08:37:51;24.70;99.90
23579;DHT22;11967;50.852;4.400;2022-08-19T08:40:44;24.80;99.90
23579;DHT22;11967;50.852;4.400;2022-08-19T08:43:28;24.90;99.90
23579;DHT22;11967;50.852;4.400;2022-08-19T08:46:15;25.00;99.90
23579;DHT22;11967;50.852;4.400;2022-08-19T08:49:02;24.80;99.90
23579;DHT22;11967;50.852;4.400;2022-08-19T08:51:37;24.80;99.90
23579;DHT22;11967;50.852;4.400;2022-08-19T08:54:10;24.80;99.90
23579;DHT22;11967;50.852;4.400;2022-08-19T08:56:44;24.80;99.90
23579;DHT22;11967;50.852;4.400;2022-08-19T08:59:20;24.90;99.90
23579;DHT22;11967;50.852;4.400;2022-08-19T09:01:47;24.90;99.90
23579;DHT22;11967;50.852;4.400;2022-08-19T09:04:13;24.90;99.90
23579;DHT22;11967;50.852;4.400;2022-08-19T09:09:34;24.50;99.90
23579;DHT22;11967;50.852;4.400;2022-08-19T09:14:46;24.20;99.90
23579;DHT22;11967;50.852;4.400;2022-08-19T09:17:14;24.30;99.90
23579;DHT22;11967;50.852;4.400;2022-08-19T09:20:14;24.40;99.90
23579;DHT22;11967;50.852;4.400;2022-08-19T09:22:42;24.50;99.90
23579;DHT22;11967;50.852;4.400;2022-08-19T09:25:14;24.40;99.90
23579;DHT22;11967;50.852;4.400;2022-08-19T09:27:41;24.50;99.90
23579;DHT22;11967;50.852;4.400;2022-08-19T09:30:09;24.50;99.90
23579;DHT22;11967;50.852;4.400;2022-08-19T09:32:35;24.50;99.90
23579;DHT22;11967;50.852;4.400;2022-08-19T09:35:01;24.50;99.90
23579;DHT22;11967;50.852;4.400;2022-08-19T09:37:27;24.60;99.90
23579;DHT22;11967;50.852;4.400;2022-08-19T09:39:53;24.70;99.90
23579;DHT22;11967;50.852;4.400;2022-08-19T09:42:19;24.80;99.90
23579;DHT22;11967;50.852;4.400;2022-08-19T09:44:45;24.90;99.90
23579;DHT22;11967;50.852;4.400;2022-08-19T09:47:12;24.90;99.90
23579;DHT22;11967;50.852;4.400;2022-08-19T09:49:39;24.80;99.90
23579;DHT22;11967;50.852;4.400;2022-08-19T09:52:07;24.80;99.90
23579;DHT22;11967;50.852;4.400;2022-08-19T09:54:33;24.80;99.90
23579;DHT22;11967;50.852;4.400;2022-08-19T09:57:00;24.90;99.90
23579;DHT22;11967;50.852;4.400;2022-08-19T09:59:27;24.80;99.90
23579;DHT22;11967;50.852;4.400;2022-08-19T10:01:53;24.70;99.90
23579;DHT22;11967;50.852;4.400;2022-08-19T10:04:18;24.80;99.90
23579;DHT22;11967;50.852;4.400;2022-08-19T10:06:47;25.10;99.90
23579;DHT22;11967;50.852;4.400;2022-08-19T10:09:15;25.30;99.90
23579;DHT22;11967;50.852;4.400;2022-08-19T10:11:43;25.30;99.90
23579;DHT22;11967;50.852;4.400;2022-08-19T10:14:11;25.30;99.90
23579;DHT22;11967;50.852;4.400;2022-08-19T10:16:37;25.20;99.90
23579;DHT22;11967;50.852;4.400;2022-08-19T10:19:04;25.00;99.90
23579;DHT22;11967;50.852;4.400;2022-08-19T10:21:32;24.90;99.90
23579;DHT22;11967;50.852;4.400;2022-08-19T10:24:00;25.00;99.90
23579;DHT22;11967;50.852;4.400;2022-08-19T10:26:35;24.90;99.90
23579;DHT22;11967;50.852;4.400;2022-08-19T10:29:03;24.60;99.90
23579;DHT22;11967;50.852;4.400;2022-08-19T10:31:31;24.40;99.90
23579;DHT22;11967;50.852;4.400;2022-08-19T10:33:59;24.20;99.90
23579;DHT22;11967;50.852;4.400;2022-08-19T10:36:32;24.00;99.90
23579;DHT22;11967;50.852;4.400;2022-08-19T10:39:02;23.90;99.90
23579;DHT22;11967;50.852;4.400;2022-08-19T10:41:30;23.80;99.90
23579;DHT22;11967;50.852;4.400;2022-08-19T10:44:03;23.80;99.90
23579;DHT22;11967;50.852;4.400;2022-08-19T10:46:29;23.60;99.90
23579;DHT22;11967;50.852;4.400;2022-08-19T10:48:58;23.50;99.90
23579;DHT22;11967;50.852;4.400;2022-08-19T10:51:24;23.50;99.90
23579;DHT22;11967;50.852;4.400;2022-08-19T10:54:08;23.60;99.90
23579;DHT22;11967;50.852;4.400;2022-08-19T10:56:34;23.70;99.90
23579;DHT22;11967;50.852;4.400;2022-08-19T10:59:21;23.90;99.90
23579;DHT22;11967;50.852;4.400;2022-08-19T11:01:48;24.00;99.90
23579;DHT22;11967;50.852;4.400;2022-08-19T11:04:14;24.00;99.90
23579;DHT22;11967;50.852;4.400;2022-08-19T11:06:43;24.10;99.90
23579;DHT22;11967;50.852;4.400;2022-08-19T11:09:22;24.10;99.90
23579;DHT22;11967;50.852;4.400;2022-08-19T11:11:52;24.10;99.90
23579;DHT22;11967;50.852;4.400;2022-08-19T11:14:20;24.10;99.90
23579;DHT22;11967;50.852;4.400;2022-08-19T11:16:47;24.20;99.90
23579;DHT22;11967;50.852;4.400;2022-08-19T11:19:14;24.10;99.90
23579;DHT22;11967;50.852;4.400;2022-08-19T11:21:44;24.20;99.90
23579;DHT22;11967;50.852;4.400;2022-08-19T11:24:19;24.30;99.90
23579;DHT22;11967;50.852;4.400;2022-08-19T11:26:46;24.40;99.90
23579;DHT22;11967;50.852;4.400;2022-08-19T11:29:15;24.50;99.90
23579;DHT22;11967;50.852;4.400;2022-08-19T11:31:44;24.50;99.90
23579;DHT22;11967;50.852;4.400;2022-08-19T11:34:13;24.60;99.90
23579;DHT22;11967;50.852;4.400;2022-08-19T11:36:41;24.70;99.90
23579;DHT22;11967;50.852;4.400;2022-08-19T11:39:09;24.70;99.90
23579;DHT22;11967;50.852;4.400;2022-08-19T11:41:35;24.70;99.90
23579;DHT22;11967;50.852;4.400;2022-08-19T11:44:01;24.60;99.90
23579;DHT22;11967;50.852;4.400;2022-08-19T11:46:28;24.60;99.90
23579;DHT22;11967;50.852;4.400;2022-08-19T11:48:58;24.60;99.90
23579;DHT22;11967;50.852;4.400;2022-08-19T11:51:25;24.70;99.90
23579;DHT22;11967;50.852;4.400;2022-08-19T11:53:52;24.70;99.90
23579;DHT22;11967;50.852;4.400;2022-08-19T11:56:19;24.80;99.90
23579;DHT22;11967;50.852;4.400;2022-08-19T11:58:45;24.80;99.90
23579;DHT22;11967;50.852;4.400;2022-08-19T12:01:14;24.70;99.90
23579;DHT22;11967;50.852;4.400;2022-08-19T12:03:44;24.70;99.90
23579;DHT22;11967;50.852;4.400;2022-08-19T12:06:14;24.60;99.90
23579;DHT22;11967;50.852;4.400;2022-08-19T12:08:41;24.60;99.90
23579;DHT22;11967;50.852;4.400;2022-08-19T12:11:08;24.70;99.90
23579;DHT22;11967;50.852;4.400;2022-08-19T12:13:35;24.80;99.90
23579;DHT22;11967;50.852;4.400;2022-08-19T12:16:13;24.80;99.90
23579;DHT22;11967;50.852;4.400;2022-08-19T12:18:41;24.90;99.90
23579;DHT22;11967;50.852;4.400;2022-08-19T12:21:09;25.00;99.90
23579;DHT22;11967;50.852;4.400;2022-08-19T12:23:36;25.20;99.90
23579;DHT22;11967;50.852;4.400;2022-08-19T12:26:03;25.30;99.90
23579;DHT22;11967;50.852;4.400;2022-08-19T12:28:30;25.40;99.90
23579;DHT22;11967;50.852;4.400;2022-08-19T12:30:56;25.40;99.90
23579;DHT22;11967;50.852;4.400;2022-08-19T12:33:23;25.40;99.90
23579;DHT22;11967;50.852;4.400;2022-08-19T12:35:53;25.40;99.90
23579;DHT22;11967;50.852;4.400;2022-08-19T12:38:20;25.40;99.90
23579;DHT22;11967;50.852;4.400;2022-08-19T12:40:52;25.40;99.90
23579;DHT22;11967;50.852;4.400;2022-08-19T12:43:17;25.40;99.90
23579;DHT22;11967;50.852;4.400;2022-08-19T12:45:45;25.20;99.90
23579;DHT22;11967;50.852;4.400;2022-08-19T12:48:12;25.20;99.90
23579;DHT22;11967;50.852;4.400;2022-08-19T12:50:42;25.30;99.90
23579;DHT22;11967;50.852;4.400;2022-08-19T12:53:08;25.40;99.90
23579;DHT22;11967;50.852;4.400;2022-08-19T12:55:34;25.40;99.90
23579;DHT22;11967;50.852;4.400;2022-08-19T12:58:00;25.40;99.90
23579;DHT22;11967;50.852;4.400;2022-08-19T13:00:29;25.60;99.90
23579;DHT22;11967;50.852;4.400;2022-08-19T13:02:56;25.60;99.90
23579;DHT22;11967;50.852;4.400;2022-08-19T13:05:24;25.60;99.90
23579;DHT22;11967;50.852;4.400;2022-08-19T13:07:53;25.60;99.90
23579;DHT22;11967;50.852;4.400;2022-08-19T13:10:25;25.60;99.90
23579;DHT22;11967;50.852;4.400;2022-08-19T13:12:53;25.70;99.90
23579;DHT22;11967;50.852;4.400;2022-08-19T13:15:20;25.60;99.90
23579;DHT22;11967;50.852;4.400;2022-08-19T13:17:51;25.60;99.90
23579;DHT22;11967;50.852;4.400;2022-08-19T13:20:19;25.60;99.90
23579;DHT22;11967;50.852;4.400;2022-08-19T13:22:46;25.70;99.90
23579;DHT22;11967;50.852;4.400;2022-08-19T13:25:12;25.70;99.90
23579;DHT22;11967;50.852;4.400;2022-08-19T13:27:39;25.60;99.90
23579;DHT22;11967;50.852;4.400;2022-08-19T13:30:07;25.70;99.90
23579;DHT22;11967;50.852;4.400;2022-08-19T13:32:52;25.70;99.90
23579;DHT22;11967;50.852;4.400;2022-08-19T13:35:58;25.60;99.90
23579;DHT22;11967;50.852;4.400;2022-08-19T13:38:27;25.60;99.90
23579;DHT22;11967;50.852;4.400;2022-08-19T13:40:54;25.50;99.90
23579;DHT22;11967;50.852;4.400;2022-08-19T13:43:22;25.50;99.90
23579;DHT22;11967;50.852;4.400;2022-08-19T13:45:52;25.60;99.90
23579;DHT22;11967;50.852;4.400;2022-08-19T13:48:20;25.60;99.90
23579;DHT22;11967;50.852;4.400;2022-08-19T13:50:46;25.70;99.90
23579;DHT22;11967;50.852;4.400;2022-08-19T13:53:15;25.70;99.90
23579;DHT22;11967;50.852;4.400;2022-08-19T13:55:42;25.70;99.90
23579;DHT22;11967;50.852;4.400;2022-08-19T13:58:10;25.90;99.90
23579;DHT22;11967;50.852;4.400;2022-08-19T14:00:41;25.80;99.90
23579;DHT22;11967;50.852;4.400;2022-08-19T14:03:07;25.60;99.90
23579;DHT22;11967;50.852;4.400;2022-08-19T14:05:33;25.60;99.90
23579;DHT22;11967;50.852;4.400;2022-08-19T14:07:59;25.60;99.90
23579;DHT22;11967;50.852;4.400;2022-08-19T14:10:26;25.70;99.90
23579;DHT22;11967;50.852;4.400;2022-08-19T14:12:56;25.50;99.90
23579;DHT22;11967;50.852;4.400;2022-08-19T14:15:24;25.50;99.90
23579;DHT22;11967;50.852;4.400;2022-08-19T14:17:51;25.40;99.90
23579;DHT22;11967;50.852;4.400;2022-08-19T14:20:17;25.00;99.90
23579;DHT22;11967;50.852;4.400;2022-08-19T14:22:44;24.90;99.90
23579;DHT22;11967;50.852;4.400;2022-08-19T14:25:13;24.80;99.90
23579;DHT22;11967;50.852;4.400;2022-08-19T14:27:40;24.80;99.90
23579;DHT22;11967;50.852;4.400;2022-08-19T14:30:09;24.70;99.90
23579;DHT22;11967;50.852;4.400;2022-08-19T14:32:35;24.60;99.90
23579;DHT22;11967;50.852;4.400;2022-08-19T14:35:01;24.40;99.90
23579;DHT22;11967;50.852;4.400;2022-08-19T14:37:27;24.40;99.90
23579;DHT22;11967;50.852;4.400;2022-08-19T14:39:53;24.40;99.90
23579;DHT22;11967;50.852;4.400;2022-08-19T14:42:19;24.50;99.90
23579;DHT22;11967;50.852;4.400;2022-08-19T14:44:44;24.50;99.90
23579;DHT22;11967;50.852;4.400;2022-08-19T14:47:10;24.40;99.90
23579;DHT22;11967;50.852;4.400;2022-08-19T14:49:36;24.50;99.90
23579;DHT22;11967;50.852;4.400;2022-08-19T14:52:03;24.60;99.90
23579;DHT22;11967;50.852;4.400;2022-08-19T14:54:29;24.60;99.90
23579;DHT22;11967;50.852;4.400;2022-08-19T14:56:55;24.60;99.90
23579;DHT22;11967;50.852;4.400;2022-08-19T14:59:20;24.60;99.90
23579;DHT22;11967;50.852;4.400;2022-08-19T15:01:46;24.70;99.90
23579;DHT22;11967;50.852;4.400;2022-08-19T15:04:12;24.90;99.90
23579;DHT22;11967;50.852;4.400;2022-08-19T15:06:38;25.10;99.90
23579;DHT22;11967;50.852;4.400;2022-08-19T15:09:04;25.20;99.90
23579;DHT22;11967;50.852;4.400;2022-08-19T15:11:30;25.30;99.90
23579;DHT22;11967;50.852;4.400;2022-08-19T15:13:58;25.30;99.90
23579;DHT22;11967;50.852;4.400;2022-08-19T15:16:25;25.30;99.90
23579;DHT22;11967;50.852;4.400;2022-08-19T15:18:54;25.20;99.90
23579;DHT22;11967;50.852;4.400;2022-08-19T15:21:21;25.40;99.90
23579;DHT22;11967;50.852;4.400;2022-08-19T15:23:49;25.50;99.90
23579;DHT22;11967;50.852;4.400;2022-08-19T15:26:15;25.60;99.90
23579;DHT22;11967;50.852;4.400;2022-08-19T15:28:41;25.60;99.90
23579;DHT22;11967;50.852;4.400;2022-08-19T15:31:07;25.70;99.90
23579;DHT22;11967;50.852;4.400;2022-08-19T15:33:34;25.80;99.90
23579;DHT22;11967;50.852;4.400;2022-08-19T15:36:03;25.80;99.90
23579;DHT22;11967;50.852;4.400;2022-08-19T15:38:31;25.70;99.90
23579;DHT22;11967;50.852;4.400;2022-08-19T15:41:02;25.70;99.90
23579;DHT22;11967;50.852;4.400;2022-08-19T15:43:47;25.80;99.90